Terminal Aerodrome Forecast
Issued by NWS

Home | Current Version | Previous Version | Graphics & Text | Print | Product List | Glossary On
Versions: 1 2 3 4 5 6 7 8 9 10 11 12 13 14 15 16 17 18 19 20 21
000
FTUS42 KMHX 221129
TAFOAJ
TAF
KOAJ 221129Z 2212/2312 00000KT P6SM FEW070
     FM221500 21011G19KT P6SM SCT050
     FM230000 21007KT P6SM VCSH BKN050
     FM230800 02007KT P6SM VCSH BKN010
      AMD LTD TO CLD VIS AND WIND=

USA.gov is the U.S. government's official web portal to all federal, state and local government web resources and services.